createdAt,value
2022-08-07T00:00:24.562Z,79.92
2022-08-07T00:02:51.068Z,79.02
2022-08-07T00:05:20.307Z,79.45
2022-08-07T00:07:47.032Z,78.88
2022-08-07T00:10:27.371Z,79.97
2022-08-07T00:13:01.021Z,79.99
2022-08-07T00:15:38.442Z,78.89
2022-08-07T00:18:19.531Z,79.06
2022-08-07T00:20:51.248Z,79.10
2022-08-07T00:23:18.054Z,80.33
2022-08-07T00:26:00.409Z,79.91
2022-08-07T00:28:33.933Z,79.67
2022-08-07T00:31:01.570Z,78.62
2022-08-07T00:33:32.883Z,77.79
2022-08-07T00:36:00.130Z,78.09
2022-08-07T00:38:31.244Z,77.95
2022-08-07T00:40:58.754Z,78.42
2022-08-07T00:43:59.338Z,78.10
2022-08-07T00:46:12.545Z,79.55
2022-08-07T00:48:42.153Z,78.46
2022-08-07T00:51:09.617Z,79.78
2022-08-07T00:53:39.175Z,79.37
2022-08-07T00:56:17.195Z,79.14
2022-08-07T00:58:47.106Z,78.82
2022-08-07T01:01:16.349Z,79.77
2022-08-07T01:03:55.610Z,78.89
2022-08-07T01:06:26.420Z,78.96
2022-08-07T01:08:53.905Z,79.04
2022-08-07T01:12:05.014Z,77.95
2022-08-07T01:14:09.605Z,78.22
2022-08-07T01:16:37.132Z,78.23
2022-08-07T01:19:18.285Z,78.98
2022-08-07T01:21:46.652Z,79.02
2022-08-07T01:24:13.747Z,79.82
2022-08-07T01:26:40.465Z,79.19
2022-08-07T01:29:07.034Z,79.89
2022-08-07T01:31:42.888Z,80.40
2022-08-07T01:34:14.935Z,80.38
2022-08-07T01:36:41.689Z,78.85
2022-08-07T01:39:10.954Z,79.58
2022-08-07T01:41:38.887Z,80.35
2022-08-07T01:44:07.462Z,80.90
2022-08-07T01:46:34.353Z,79.30
2022-08-07T01:49:01.705Z,79.71
2022-08-07T01:52:01.635Z,80.93
2022-08-07T01:54:32.608Z,80.71
2022-08-07T01:57:20.730Z,79.79
2022-08-07T01:59:56.232Z,81.08
2022-08-07T02:03:11.653Z,80.58
2022-08-07T02:05:48.072Z,80.96
2022-08-07T02:08:06.127Z,81.17
2022-08-07T02:10:36.409Z,79.66
2022-08-07T02:13:09.368Z,80.72
2022-08-07T02:15:37.971Z,79.14
2022-08-07T02:18:05.419Z,79.60
2022-08-07T02:20:34.238Z,81.29
2022-08-07T02:23:02.272Z,79.84
2022-08-07T02:26:10.340Z,79.43
2022-08-07T02:28:24.665Z,81.26
2022-08-07T02:30:54.128Z,79.68
2022-08-07T02:33:21.739Z,80.33
2022-08-07T02:36:26.936Z,80.40
2022-08-07T02:38:38.897Z,79.56
2022-08-07T02:41:05.604Z,80.80
2022-08-07T02:43:38.963Z,80.06
2022-08-07T02:46:06.571Z,79.19
2022-08-07T02:48:33.308Z,79.89
2022-08-07T02:51:03.782Z,81.35
2022-08-07T02:53:38.520Z,80.89
2022-08-07T02:56:12.863Z,80.27
2022-08-07T02:58:47.213Z,79.58
2022-08-07T03:01:18.570Z,79.34
2022-08-07T03:04:03.420Z,80.34
2022-08-07T03:06:34.804Z,80.52
2022-08-07T03:09:02.304Z,81.05
2022-08-07T03:11:32.905Z,81.47
2022-08-07T03:14:05.921Z,80.99
2022-08-07T03:16:32.775Z,80.62
2022-08-07T03:18:59.996Z,79.14
2022-08-07T03:21:27.634Z,79.83
2022-08-07T03:24:20.196Z,80.23
2022-08-07T03:26:58.545Z,81.25
2022-08-07T03:29:28.092Z,80.24
2022-08-07T03:31:55.245Z,79.47
2022-08-07T03:34:22.940Z,79.02
2022-08-07T03:36:54.819Z,79.25
2022-08-07T03:39:45.764Z,80.66
2022-08-07T03:42:12.266Z,80.67
2022-08-07T03:44:39.007Z,80.75
2022-08-07T03:47:10.893Z,80.54
2022-08-07T03:49:41.349Z,80.65
2022-08-07T03:52:22.583Z,81.20
2022-08-07T03:54:54.791Z,78.86
2022-08-07T03:58:35.502Z,81.15
2022-08-07T04:00:11.653Z,79.45
2022-08-07T04:02:41.088Z,79.74
2022-08-07T04:05:08.064Z,81.03
2022-08-07T04:07:42.826Z,79.76
2022-08-07T04:10:15.781Z,81.11
2022-08-07T04:12:46.432Z,80.85
2022-08-07T04:15:14.648Z,81.61
2022-08-07T04:18:57.426Z,81.77
2022-08-07T04:20:29.331Z,82.54
2022-08-07T04:23:01.451Z,80.88
2022-08-07T04:25:29.502Z,80.66
2022-08-07T04:28:00.701Z,81.68
2022-08-07T04:30:43.623Z,80.17
2022-08-07T04:33:15.616Z,80.72
2022-08-07T04:35:44.193Z,81.68
2022-08-07T04:38:17.063Z,80.84
2022-08-07T04:40:52.457Z,80.56
2022-08-07T04:43:53.531Z,81.98
2022-08-07T04:46:25.700Z,81.11
2022-08-07T04:48:55.700Z,80.36
2022-08-07T04:51:28.691Z,81.21
2022-08-07T04:54:17.148Z,80.43
2022-08-07T04:58:16.043Z,81.16
2022-08-07T05:00:11.678Z,81.83
2022-08-07T05:02:48.854Z,81.75
2022-08-07T05:05:53.113Z,82.06
2022-08-07T05:08:59.502Z,81.83
2022-08-07T05:11:19.650Z,81.99
2022-08-07T05:14:52.970Z,81.87
2022-08-07T05:16:52.507Z,80.62
2022-08-07T05:19:20.791Z,79.89
2022-08-07T05:22:01.787Z,78.96
2022-08-07T05:24:30.601Z,79.06
2022-08-07T05:27:23.453Z,78.77
2022-08-07T05:29:56.551Z,78.32
2022-08-07T05:32:24.806Z,78.41
2022-08-07T05:34:51.644Z,80.25
2022-08-07T05:37:25.098Z,81.14
2022-08-07T05:40:05.382Z,80.85
2022-08-07T05:42:40.029Z,80.26
2022-08-07T05:45:26.127Z,78.27
2022-08-07T05:48:02.158Z,76.99
2022-08-07T05:50:30.912Z,78.42
2022-08-07T05:52:57.844Z,78.27
2022-08-07T05:55:25.378Z,78.36
2022-08-07T05:58:12.164Z,78.73
2022-08-07T06:00:39.053Z,78.27
2022-08-07T06:03:07.039Z,77.91
2022-08-07T06:05:34.296Z,78.30
2022-08-07T06:08:14.073Z,78.30
2022-08-07T06:10:52.027Z,76.09
2022-08-07T06:14:13.213Z,75.88
2022-08-07T06:16:08.649Z,75.87
2022-08-07T06:18:37.150Z,77.12
2022-08-07T06:22:16.022Z,76.93
2022-08-07T06:24:46.053Z,76.50
2022-08-07T06:26:39.785Z,74.90
2022-08-07T06:29:08.375Z,72.66
2022-08-07T06:31:46.580Z,74.05
2022-08-07T06:34:20.465Z,73.77
2022-08-07T06:36:47.391Z,74.15
2022-08-07T06:40:15.817Z,71.97
2022-08-07T06:42:05.299Z,71.64
2022-08-07T06:44:34.277Z,70.49
2022-08-07T06:47:12.075Z,71.16
2022-08-07T06:49:51.625Z,70.86
2022-08-07T06:52:31.654Z,70.36
2022-08-07T06:55:34.546Z,69.95
2022-08-07T06:57:56.827Z,67.58
2022-08-07T07:00:24.494Z,66.50
2022-08-07T07:02:54.126Z,67.20
2022-08-07T07:06:02.441Z,66.39
2022-08-07T07:08:18.567Z,65.42
2022-08-07T07:10:56.618Z,65.11
2022-08-07T07:13:41.487Z,62.99
2022-08-07T07:16:19.792Z,63.34
2022-08-07T07:18:50.112Z,63.20
2022-08-07T07:21:27.094Z,61.50
2022-08-07T07:24:11.496Z,60.96
2022-08-07T07:26:39.239Z,61.80
2022-08-07T07:29:56.426Z,61.61
2022-08-07T07:31:57.943Z,61.28
2022-08-07T07:34:31.214Z,59.00
2022-08-07T07:37:05.462Z,59.33
2022-08-07T07:39:52.296Z,59.26
2022-08-07T07:42:25.686Z,58.60
2022-08-07T07:44:59.759Z,58.10
2022-08-07T07:47:26.543Z,58.32
2022-08-07T07:50:35.770Z,57.67
2022-08-07T07:52:41.988Z,57.28
2022-08-07T07:55:09.250Z,57.70
2022-08-07T07:57:52.725Z,56.06
2022-08-07T08:00:29.892Z,56.94
2022-08-07T08:03:08.016Z,56.34
2022-08-07T08:05:42.904Z,55.88
2022-08-07T08:08:34.887Z,55.74
2022-08-07T08:11:02.665Z,53.63
2022-08-07T08:13:36.653Z,55.59
2022-08-07T08:16:20.548Z,54.83
2022-08-07T08:18:53.800Z,53.50
2022-08-07T08:21:56.042Z,53.56
2022-08-07T08:24:46.622Z,53.88
2022-08-07T08:27:16.700Z,53.22
2022-08-07T08:29:55.526Z,53.84
2022-08-07T08:32:25.439Z,52.45
2022-08-07T08:35:05.168Z,54.31
2022-08-07T08:38:00.550Z,54.28
2022-08-07T08:40:33.950Z,54.75
2022-08-07T08:43:16.137Z,52.64
2022-08-07T08:45:59.519Z,52.27
2022-08-07T08:48:36.044Z,52.39
2022-08-07T08:51:49.740Z,52.66
2022-08-07T08:54:06.574Z,51.53
2022-08-07T08:56:38.890Z,51.70
2022-08-07T08:59:14.143Z,51.25
2022-08-07T09:02:01.835Z,49.28
2022-08-07T09:04:44.558Z,50.86
2022-08-07T09:07:16.500Z,50.80
2022-08-07T09:09:56.861Z,50.88
2022-08-07T09:12:34.185Z,50.59
2022-08-07T09:16:23.932Z,51.16
2022-08-07T09:18:05.086Z,50.84
2022-08-07T09:20:57.954Z,48.99
2022-08-07T09:24:52.593Z,49.33
2022-08-07T09:26:33.478Z,48.99
2022-08-07T09:30:06.113Z,49.29
2022-08-07T09:31:56.244Z,49.71
2022-08-07T09:34:27.335Z,50.40
2022-08-07T09:37:02.646Z,49.81
2022-08-07T09:39:54.730Z,49.24
2022-08-07T09:42:33.966Z,49.54
2022-08-07T09:47:50.208Z,49.81
2022-08-07T09:48:14.635Z,48.66
2022-08-07T09:51:03.254Z,47.57
2022-08-07T09:53:41.102Z,48.36
2022-08-07T09:56:34.078Z,47.28
2022-08-07T09:59:14.059Z,48.47
2022-08-07T10:01:53.044Z,48.85
2022-08-07T10:04:32.674Z,47.23
2022-08-07T10:07:02.626Z,47.14
2022-08-07T10:09:58.962Z,47.31
2022-08-07T10:12:52.586Z,47.23
2022-08-07T10:15:22.450Z,49.45
2022-08-07T10:18:06.200Z,49.07
2022-08-07T10:20:32.592Z,47.87
2022-08-07T10:23:01.946Z,46.52
2022-08-07T10:25:42.358Z,45.87
2022-08-07T10:28:23.575Z,48.31
2022-08-07T10:31:06.064Z,49.56
2022-08-07T10:34:05.973Z,52.13
2022-08-07T10:36:48.106Z,52.23
2022-08-07T10:39:25.687Z,49.47
2022-08-07T10:42:31.107Z,49.63
2022-08-07T10:45:12.028Z,49.27
2022-08-07T10:47:54.100Z,49.33
2022-08-07T10:50:28.989Z,48.66
2022-08-07T10:53:05.235Z,46.99
2022-08-07T10:55:43.872Z,47.28
2022-08-07T10:58:16.652Z,46.15
2022-08-07T11:00:50.605Z,46.54
2022-08-07T11:03:52.483Z,45.79
2022-08-07T11:06:41.987Z,46.18
2022-08-07T11:10:07.058Z,46.28
2022-08-07T11:12:18.957Z,46.14
2022-08-07T11:15:09.572Z,46.58
2022-08-07T11:17:56.603Z,47.16
2022-08-07T11:20:49.211Z,46.54
2022-08-07T11:23:36.467Z,47.20
2022-08-07T11:26:21.923Z,46.58
2022-08-07T11:28:55.298Z,47.16
2022-08-07T11:31:26.896Z,46.82
2022-08-07T11:34:00.181Z,46.29
2022-08-07T11:36:30.779Z,45.90
2022-08-07T11:39:19.549Z,45.95
2022-08-07T11:42:00.272Z,46.52
2022-08-07T11:44:52.752Z,47.31
2022-08-07T11:47:58.908Z,47.82
2022-08-07T11:50:57.190Z,47.85
2022-08-07T11:54:00.960Z,46.07
2022-08-07T11:56:53.128Z,46.13
2022-08-07T12:00:10.138Z,46.12
2022-08-07T12:02:52.752Z,45.42
2022-08-07T12:05:28.729Z,46.18
2022-08-07T12:08:08.209Z,45.72
2022-08-07T12:11:08.254Z,45.09
2022-08-07T12:13:50.743Z,46.44
2022-08-07T12:16:30.259Z,45.98
2022-08-07T12:19:21.282Z,45.58
2022-08-07T12:22:35.741Z,44.79
2022-08-07T12:24:38.045Z,45.05
2022-08-07T12:27:17.006Z,46.20
2022-08-07T12:29:56.809Z,45.61
2022-08-07T12:32:23.251Z,45.06
2022-08-07T12:34:53.464Z,45.13
2022-08-07T12:37:28.237Z,44.89
2022-08-07T12:40:44.079Z,44.83
2022-08-07T12:43:00.531Z,44.60
2022-08-07T12:45:33.769Z,45.13
2022-08-07T12:48:27.992Z,44.68
2022-08-07T12:51:13.265Z,44.96
2022-08-07T12:54:37.426Z,45.16
2022-08-07T12:56:54.990Z,46.37
2022-08-07T12:59:33.265Z,45.78
2022-08-07T13:02:11.833Z,44.67
2022-08-07T13:05:14.832Z,44.20
2022-08-07T13:08:12.696Z,44.44
2022-08-07T13:11:08.733Z,43.57
2022-08-07T13:13:46.859Z,43.56
2022-08-07T13:16:32.673Z,44.05
2022-08-07T13:19:18.261Z,43.08
2022-08-07T13:22:19.053Z,43.02
2022-08-07T13:25:01.130Z,42.69
2022-08-07T13:28:13.702Z,42.67
2022-08-07T13:30:41.434Z,44.14
2022-08-07T13:34:31.189Z,44.67
2022-08-07T13:36:28.707Z,44.53
2022-08-07T13:38:55.195Z,43.68
2022-08-07T13:41:54.686Z,44.42
2022-08-07T13:44:25.852Z,42.72
2022-08-07T13:46:56.838Z,41.84
2022-08-07T13:50:33.288Z,44.50
2022-08-07T13:52:26.424Z,43.43
2022-08-07T13:55:06.348Z,42.55
2022-08-07T13:57:37.790Z,43.80
2022-08-07T14:00:07.571Z,44.31
2022-08-07T14:02:49.187Z,45.17
2022-08-07T14:05:21.809Z,43.20
2022-08-07T14:07:59.995Z,43.50
2022-08-07T14:10:32.698Z,43.30
2022-08-07T14:13:02.731Z,42.90
2022-08-07T14:15:31.668Z,42.89
2022-08-07T14:18:28.611Z,42.72
2022-08-07T14:21:07.104Z,43.60
2022-08-07T14:23:59.932Z,42.84
2022-08-07T14:26:32.022Z,42.41
2022-08-07T14:29:08.596Z,42.09
2022-08-07T14:31:56.232Z,42.20
2022-08-07T14:37:16.314Z,45.08
2022-08-07T14:40:16.417Z,44.06
2022-08-07T14:42:33.799Z,43.57
2022-08-07T14:45:21.626Z,43.71
2022-08-07T14:47:49.734Z,43.04
2022-08-07T14:50:21.308Z,42.81
2022-08-07T14:52:50.222Z,42.98
2022-08-07T14:55:17.750Z,43.28
2022-08-07T14:57:58.881Z,42.79
2022-08-07T15:00:31.066Z,43.16
2022-08-07T15:02:58.884Z,43.20
2022-08-07T15:05:26.743Z,42.92
2022-08-07T15:07:54.170Z,43.21
2022-08-07T15:10:26.126Z,42.55
2022-08-07T15:12:58.162Z,42.58
2022-08-07T15:15:29.591Z,42.36
2022-08-07T15:18:02.501Z,42.71
2022-08-07T15:20:38.577Z,42.97
2022-08-07T15:25:15.912Z,42.55
2022-08-07T15:26:20.656Z,44.03
2022-08-07T15:28:55.501Z,43.34
2022-08-07T15:34:15.083Z,43.59
2022-08-07T15:37:06.561Z,42.58
2022-08-07T15:39:56.991Z,42.61
2022-08-07T15:42:48.259Z,42.73
2022-08-07T15:45:55.528Z,42.57
2022-08-07T15:51:12.884Z,42.30
2022-08-07T15:53:58.721Z,42.60
2022-08-07T15:56:35.871Z,44.01
2022-08-07T15:59:16.462Z,42.99
2022-08-07T16:02:02.582Z,42.21
2022-08-07T16:04:31.252Z,41.82
2022-08-07T16:06:59.964Z,41.73
2022-08-07T16:09:52.634Z,42.82
2022-08-07T16:12:31.450Z,42.87
2022-08-07T16:14:59.296Z,43.40
2022-08-07T16:18:02.108Z,43.27
2022-08-07T16:20:34.054Z,43.43
2022-08-07T16:23:05.373Z,42.78
2022-08-07T16:25:52.347Z,43.71
2022-08-07T16:30:07.089Z,43.90
2022-08-07T16:31:12.728Z,44.34
2022-08-07T16:34:09.932Z,45.34
2022-08-07T16:37:02.749Z,45.71
2022-08-07T16:39:40.387Z,43.95
2022-08-07T16:42:34.949Z,44.20
2022-08-07T16:46:33.408Z,43.55
2022-08-07T16:48:09.536Z,45.43
2022-08-07T16:51:21.707Z,46.78
2022-08-07T16:54:02.873Z,47.34
2022-08-07T16:56:37.654Z,45.38
2022-08-07T16:59:19.520Z,45.71
2022-08-07T17:01:58.379Z,47.35
2022-08-07T17:04:25.504Z,48.99
2022-08-07T17:07:03.162Z,49.73
2022-08-07T17:10:07.049Z,46.72
2022-08-07T17:12:38.780Z,48.43
2022-08-07T17:15:15.680Z,49.01
2022-08-07T17:17:48.299Z,48.65
2022-08-07T17:20:29.667Z,49.24
2022-08-07T17:23:11.538Z,49.59
2022-08-07T17:26:02.975Z,50.57
2022-08-07T17:28:50.667Z,50.78
2022-08-07T17:31:25.569Z,51.49
2022-08-07T17:34:18.008Z,51.37
2022-08-07T17:36:59.952Z,52.06
2022-08-07T17:40:05.532Z,52.26
2022-08-07T17:42:59.472Z,53.10
2022-08-07T17:45:30.658Z,53.50
2022-08-07T17:48:12.897Z,53.92
2022-08-07T17:50:47.155Z,53.45
2022-08-07T17:54:00.966Z,54.21
2022-08-07T17:56:29.237Z,54.80
2022-08-07T17:58:56.851Z,56.70
2022-08-07T18:01:48.417Z,57.37
2022-08-07T18:04:35.089Z,56.52
2022-08-07T18:07:22.649Z,56.49
2022-08-07T18:10:05.759Z,57.74
2022-08-07T18:12:52.859Z,57.88
2022-08-07T18:15:22.996Z,62.38
2022-08-07T18:18:47.318Z,62.97
2022-08-07T18:21:03.599Z,62.43
2022-08-07T18:23:50.763Z,62.12
2022-08-07T18:26:44.327Z,63.40
2022-08-07T18:30:04.222Z,62.68
2022-08-07T18:32:08.215Z,62.99
2022-08-07T18:35:00.317Z,65.28
2022-08-07T18:38:55.411Z,65.48
2022-08-07T18:40:42.166Z,65.10
2022-08-07T18:43:11.616Z,66.20
2022-08-07T18:46:24.337Z,64.38
2022-08-07T18:50:30.966Z,64.47
2022-08-07T18:52:35.319Z,63.66
2022-08-07T18:54:42.685Z,63.47
2022-08-07T18:57:30.830Z,63.69
2022-08-07T19:00:32.677Z,64.15
2022-08-07T19:03:16.941Z,58.38
2022-08-07T19:06:04.791Z,61.26
2022-08-07T19:08:49.579Z,63.33
2022-08-07T19:11:36.416Z,62.20
2022-08-07T19:14:17.119Z,62.57
2022-08-07T19:17:06.941Z,63.69
2022-08-07T19:19:53.200Z,64.22
2022-08-07T19:22:36.159Z,64.66
2022-08-07T19:25:06.866Z,64.19
2022-08-07T19:28:29.554Z,64.76
2022-08-07T19:30:56.025Z,64.12
2022-08-07T19:33:15.515Z,64.18
2022-08-07T19:35:51.745Z,63.77
2022-08-07T19:38:19.621Z,64.39
2022-08-07T19:40:50.300Z,63.77
2022-08-07T19:43:48.815Z,62.95
2022-08-07T19:46:19.030Z,64.74
2022-08-07T19:48:53.764Z,64.29
2022-08-07T19:51:51.376Z,63.61
2022-08-07T19:54:31.811Z,64.50
2022-08-07T19:58:02.556Z,63.83
2022-08-07T19:59:47.114Z,64.63
2022-08-07T20:02:19.257Z,63.85
2022-08-07T20:04:49.243Z,63.66
2022-08-07T20:07:23.669Z,64.77
2022-08-07T20:10:36.827Z,64.71
2022-08-07T20:12:51.402Z,64.56
2022-08-07T20:15:22.225Z,65.07
2022-08-07T20:18:01.390Z,65.00
2022-08-07T20:20:31.068Z,64.56
2022-08-07T20:23:00.245Z,65.62
2022-08-07T20:25:29.164Z,66.54
2022-08-07T20:27:58.406Z,66.36
2022-08-07T20:30:30.940Z,66.62
2022-08-07T20:32:57.827Z,68.05
2022-08-07T20:35:33.534Z,66.58
2022-08-07T20:38:00.742Z,68.32
2022-08-07T20:40:32.560Z,68.07
2022-08-07T20:43:01.090Z,66.98
2022-08-07T20:45:33.341Z,66.65
2022-08-07T20:48:28.954Z,67.24
2022-08-07T20:50:58.571Z,67.83
2022-08-07T20:53:26.016Z,68.68
2022-08-07T20:56:12.762Z,68.97
2022-08-07T20:58:46.392Z,68.22
2022-08-07T21:01:19.863Z,69.04
2022-08-07T21:04:13.080Z,70.00
2022-08-07T21:06:36.318Z,69.99
2022-08-07T21:09:14.487Z,69.44
2022-08-07T21:11:50.393Z,70.36
2022-08-07T21:14:33.184Z,69.49
2022-08-07T21:18:02.150Z,63.95
2022-08-07T21:20:00.796Z,62.15
2022-08-07T21:22:34.526Z,61.42
2022-08-07T21:25:01.053Z,61.11
2022-08-07T21:27:46.818Z,61.14
2022-08-07T21:30:15.024Z,61.87
2022-08-07T21:32:49.658Z,61.87
2022-08-07T21:36:04.442Z,62.69
2022-08-07T21:38:27.491Z,63.24
2022-08-07T21:41:09.929Z,63.82
2022-08-07T21:43:57.025Z,63.28
2022-08-07T21:46:42.875Z,63.69
2022-08-07T21:49:21.567Z,62.76
2022-08-07T21:52:16.600Z,62.66
2022-08-07T21:55:02.507Z,64.48
2022-08-07T21:57:52.173Z,63.74
2022-08-07T22:00:25.138Z,64.07
2022-08-07T22:02:59.408Z,64.34
2022-08-07T22:05:44.396Z,64.90
2022-08-07T22:08:18.291Z,64.19
2022-08-07T22:10:46.344Z,64.98
2022-08-07T22:13:14.385Z,65.92
2022-08-07T22:16:39.328Z,64.60
2022-08-07T22:18:54.932Z,65.86
2022-08-07T22:22:01.696Z,65.64
2022-08-07T22:24:23.421Z,65.68
2022-08-07T22:27:04.292Z,65.74
2022-08-07T22:29:54.510Z,66.68
2022-08-07T22:32:42.526Z,66.76
2022-08-07T22:35:11.180Z,67.77
2022-08-07T22:38:03.232Z,67.65
2022-08-07T22:40:34.396Z,68.03
2022-08-07T22:43:12.419Z,67.44
2022-08-07T22:46:21.656Z,68.62
2022-08-07T22:49:02.056Z,67.61
2022-08-07T22:51:48.977Z,67.50
2022-08-07T22:54:16.205Z,68.53
2022-08-07T22:57:03.068Z,69.51
2022-08-07T22:59:49.786Z,68.38
2022-08-07T23:02:41.472Z,69.50
2022-08-07T23:06:09.575Z,68.93
2022-08-07T23:08:24.101Z,70.57
2022-08-07T23:10:50.971Z,71.42
2022-08-07T23:13:48.819Z,72.07
2022-08-07T23:16:54.835Z,71.49
2022-08-07T23:20:03.768Z,71.37
2022-08-07T23:22:39.230Z,70.50
2022-08-07T23:25:17.783Z,71.01
2022-08-07T23:28:22.014Z,70.51
2022-08-07T23:31:06.586Z,72.07
2022-08-07T23:34:33.814Z,72.40
2022-08-07T23:36:38.267Z,70.87
2022-08-07T23:39:09.643Z,70.24
2022-08-07T23:42:05.297Z,69.95
2022-08-07T23:45:04.638Z,70.18
2022-08-07T23:47:42.151Z,71.69
2022-08-07T23:50:19.409Z,71.55
2022-08-07T23:53:08.535Z,72.21
2022-08-07T23:55:52.354Z,72.64
2022-08-07T23:58:36.376Z,72.39
